createdAt,value
2018-07-24T00:01:10.160Z,21.90
2018-07-24T00:08:41.116Z,21.80
2018-07-24T00:11:11.901Z,21.80
2018-07-24T00:13:42.527Z,21.70
2018-07-24T00:16:13.037Z,21.60
2018-07-24T00:18:45.465Z,21.60
2018-07-24T00:21:15.968Z,21.60
2018-07-24T00:23:46.406Z,21.60
2018-07-24T00:26:16.750Z,21.50
2018-07-24T00:28:47.298Z,21.40
2018-07-24T00:31:17.709Z,21.40
2018-07-24T00:33:48.165Z,21.40
2018-07-24T00:36:18.801Z,21.30
2018-07-24T00:38:49.903Z,21.30
2018-07-24T00:41:20.639Z,21.30
2018-07-24T00:46:21.261Z,21.20
2018-07-24T00:48:52.001Z,21.10
2018-07-24T00:51:22.421Z,21.10
2018-07-24T00:53:52.895Z,21.10
2018-07-24T00:56:23.297Z,21.20
2018-07-24T00:58:53.845Z,21.20
2018-07-24T01:01:24.130Z,21.20
2018-07-24T01:03:54.840Z,21.10
2018-07-24T01:06:25.287Z,21.20
2018-07-24T01:08:55.892Z,21.10
2018-07-24T01:11:26.417Z,21.00
2018-07-24T01:13:57.035Z,20.90
2018-07-24T01:16:27.517Z,20.90
2018-07-24T01:18:58.516Z,20.90
2018-07-24T01:21:29.103Z,21.00
2018-07-24T01:23:59.624Z,21.00
2018-07-24T01:26:30.052Z,21.00
2018-07-24T01:29:01.962Z,21.00
2018-07-24T01:31:32.507Z,20.90
2018-07-24T01:34:02.859Z,20.90
2018-07-24T01:36:33.219Z,20.80
2018-07-24T01:39:03.917Z,20.80
2018-07-24T01:41:34.357Z,20.80
2018-07-24T01:44:05.020Z,20.80
2018-07-24T01:46:36.830Z,20.80
2018-07-24T01:49:07.678Z,20.80
2018-07-24T01:51:38.402Z,20.70
2018-07-24T01:54:09.359Z,20.70
2018-07-24T01:56:39.698Z,20.70
2018-07-24T01:59:10.094Z,20.60
2018-07-24T02:01:40.417Z,20.60
2018-07-24T02:04:11.629Z,20.50
2018-07-24T02:06:42.122Z,20.50
2018-07-24T02:09:12.824Z,20.40
2018-07-24T02:11:43.268Z,20.40
2018-07-24T02:14:14.290Z,20.30
2018-07-24T02:16:45.046Z,20.30
2018-07-24T02:19:15.744Z,20.20
2018-07-24T02:21:46.585Z,20.20
2018-07-24T02:24:17.130Z,20.20
2018-07-24T02:26:47.474Z,20.20
2018-07-24T02:29:17.890Z,20.20
2018-07-24T02:31:48.949Z,20.20
2018-07-24T02:34:19.517Z,20.20
2018-07-24T02:36:49.974Z,20.10
2018-07-24T02:39:20.543Z,20.10
2018-07-24T02:44:20.746Z,20.10
2018-07-24T02:46:51.698Z,20.00
2018-07-24T02:51:52.186Z,20.00
2018-07-24T02:54:23.258Z,20.00
2018-07-24T02:56:53.840Z,19.90
2018-07-24T02:59:24.272Z,19.90
2018-07-24T03:01:54.703Z,19.90
2018-07-24T03:04:25.542Z,19.80
2018-07-24T03:06:56.157Z,19.80
2018-07-24T03:09:26.517Z,19.80
2018-07-24T03:11:57.061Z,19.80
2018-07-24T03:14:27.648Z,19.70
2018-07-24T03:16:58.078Z,19.80
2018-07-24T03:21:59.798Z,19.70
2018-07-24T03:24:30.321Z,19.70
2018-07-24T03:27:00.673Z,19.60
2018-07-24T03:29:32.129Z,19.60
2018-07-24T03:32:02.690Z,19.50
2018-07-24T03:34:33.169Z,19.40
2018-07-24T03:37:03.651Z,19.40
2018-07-24T03:39:34.316Z,19.40
2018-07-24T03:44:34.919Z,19.40
2018-07-24T03:47:05.867Z,19.40
2018-07-24T03:49:36.151Z,19.40
2018-07-24T03:52:07.033Z,19.40
2018-07-24T03:54:37.541Z,19.40
2018-07-24T03:57:07.959Z,19.40
2018-07-24T03:59:38.439Z,19.40
2018-07-24T04:02:11.523Z,19.50
2018-07-24T04:04:41.975Z,19.50
2018-07-24T04:07:12.455Z,19.50
2018-07-24T04:09:43.179Z,19.60
2018-07-24T04:12:13.531Z,19.60
2018-07-24T04:14:43.837Z,19.60
2018-07-24T04:17:14.858Z,19.70
2018-07-24T04:19:48.610Z,19.70
2018-07-24T04:22:19.202Z,19.70
2018-07-24T04:24:50.282Z,19.70
2018-07-24T04:27:20.719Z,19.70
2018-07-24T04:29:51.330Z,19.70
2018-07-24T04:32:21.829Z,19.80
2018-07-24T04:34:52.321Z,19.80
2018-07-24T04:37:23.130Z,19.80
2018-07-24T04:39:53.475Z,19.80
2018-07-24T04:42:23.990Z,19.80
2018-07-24T04:44:54.807Z,19.80
2018-07-24T04:47:26.027Z,19.80
2018-07-24T04:49:56.591Z,19.80
2018-07-24T04:52:27.591Z,19.80
2018-07-24T04:54:57.902Z,19.80
2018-07-24T04:57:28.414Z,19.70
2018-07-24T04:59:58.825Z,19.70
2018-07-24T05:02:29.392Z,19.70
2018-07-24T05:04:59.774Z,19.60
2018-07-24T05:07:30.639Z,19.70
2018-07-24T05:10:01.540Z,19.70
2018-07-24T05:12:31.995Z,19.70
2018-07-24T05:17:32.494Z,19.70
2018-07-24T05:20:03.195Z,19.80
2018-07-24T05:22:33.770Z,19.80
2018-07-24T05:25:04.787Z,19.80
2018-07-24T05:27:35.267Z,19.90
2018-07-24T05:32:36.405Z,20.10
2018-07-24T05:35:07.415Z,20.30
2018-07-24T05:37:39.626Z,20.40
2018-07-24T05:40:10.681Z,20.70
2018-07-24T05:45:11.602Z,21.00
2018-07-24T05:47:42.324Z,21.20
2018-07-24T05:50:12.846Z,21.50
2018-07-24T05:52:43.234Z,21.70
2018-07-24T05:55:13.699Z,21.90
2018-07-24T05:57:44.216Z,22.00
2018-07-24T06:00:14.786Z,22.30
2018-07-24T06:02:45.618Z,22.60
2018-07-24T06:07:45.994Z,23.00
2018-07-24T06:10:16.337Z,23.30
2018-07-24T06:12:46.723Z,23.60
2018-07-24T06:15:17.199Z,23.70
2018-07-24T06:17:48.170Z,24.00
2018-07-24T06:20:18.706Z,24.20
2018-07-24T06:22:49.083Z,24.40
2018-07-24T06:25:20.170Z,24.60
2018-07-24T06:27:50.407Z,24.70
2018-07-24T06:30:20.776Z,24.90
2018-07-24T06:32:51.122Z,25.10
2018-07-24T06:35:21.462Z,25.40
2018-07-24T06:37:51.897Z,25.40
2018-07-24T06:40:23.090Z,25.30
2018-07-24T06:42:54.158Z,25.50
2018-07-24T06:45:24.571Z,25.70
2018-07-24T06:47:54.954Z,26.10
2018-07-24T06:50:25.880Z,26.50
2018-07-24T06:52:56.697Z,26.70
2018-07-24T06:55:27.333Z,27.00
2018-07-24T06:57:57.822Z,26.90
2018-07-24T07:00:28.867Z,27.30
2018-07-24T07:02:59.412Z,27.60
2018-07-24T07:05:29.806Z,27.90
2018-07-24T07:08:00.478Z,27.80
2018-07-24T07:10:30.746Z,28.00
2018-07-24T07:15:31.514Z,27.80
2018-07-24T07:18:02.498Z,28.20
2018-07-24T07:20:33.219Z,28.60
2018-07-24T07:23:03.913Z,28.50
2018-07-24T07:25:34.588Z,28.80
2018-07-24T07:28:05.229Z,29.00
2018-07-24T07:30:36.253Z,29.10
2018-07-24T07:33:07.193Z,29.20
2018-07-24T07:35:37.826Z,29.50
2018-07-24T07:38:08.330Z,30.00
2018-07-24T07:40:39.286Z,30.00
2018-07-24T07:43:09.886Z,30.30
2018-07-24T07:45:40.418Z,29.70
2018-07-24T07:48:10.923Z,29.90
2018-07-24T07:50:41.847Z,30.00
2018-07-24T07:53:12.511Z,30.50
2018-07-24T07:55:42.854Z,30.70
2018-07-24T07:58:13.896Z,31.00
2018-07-24T08:00:44.110Z,31.40
2018-07-24T08:03:14.845Z,31.40
2018-07-24T08:05:45.518Z,31.70
2018-07-24T08:08:16.265Z,31.60
2018-07-24T08:10:46.688Z,32.10
2018-07-24T08:13:17.016Z,31.70
2018-07-24T08:15:47.391Z,32.10
2018-07-24T08:20:47.908Z,32.70
2018-07-24T08:23:18.181Z,33.30
2018-07-24T08:25:48.964Z,33.30
2018-07-24T08:28:20.124Z,32.60
2018-07-24T08:30:50.422Z,32.50
2018-07-24T08:33:20.741Z,32.60
2018-07-24T08:35:51.529Z,32.50
2018-07-24T08:38:21.978Z,32.60
2018-07-24T08:40:52.318Z,33.20
2018-07-24T08:43:23.334Z,33.90
2018-07-24T08:45:54.252Z,34.20
2018-07-24T08:48:24.826Z,34.30
2018-07-24T08:50:55.405Z,34.30
2018-07-24T08:53:26.424Z,34.80
2018-07-24T08:55:56.536Z,35.20
2018-07-24T08:58:26.921Z,35.50
2018-07-24T09:00:57.867Z,35.70
2018-07-24T09:03:28.349Z,35.90
2018-07-24T09:05:59.137Z,35.70
2018-07-24T09:08:29.541Z,33.90
2018-07-24T09:11:00.111Z,33.20
2018-07-24T09:13:30.596Z,32.70
2018-07-24T09:16:01.138Z,33.70
2018-07-24T09:18:32.712Z,34.50
2018-07-24T09:21:03.337Z,35.20
2018-07-24T09:23:33.814Z,35.60
2018-07-24T09:28:36.690Z,35.30
2018-07-24T09:31:07.328Z,34.90
2018-07-24T09:33:38.036Z,35.50
2018-07-24T09:36:12.596Z,35.90
2018-07-24T09:38:42.897Z,35.20
2018-07-24T09:41:13.213Z,34.60
2018-07-24T09:43:43.938Z,34.80
2018-07-24T09:46:14.492Z,34.20
2018-07-24T09:48:44.966Z,34.80
2018-07-24T09:51:15.594Z,35.30
2018-07-24T09:53:45.870Z,35.30
2018-07-24T09:56:18.517Z,35.60
2018-07-24T09:58:49.114Z,35.20
2018-07-24T10:01:24.798Z,34.20
2018-07-24T10:03:55.185Z,34.90
2018-07-24T10:06:26.074Z,34.70
2018-07-24T10:08:56.415Z,35.60
2018-07-24T10:11:26.965Z,36.40
2018-07-24T10:13:57.344Z,36.70
2018-07-24T10:16:28.056Z,37.30
2018-07-24T10:21:28.692Z,36.90
2018-07-24T10:23:59.026Z,36.50
2018-07-24T10:26:29.686Z,35.70
2018-07-24T10:29:00.216Z,36.40
2018-07-24T10:31:30.610Z,37.00
2018-07-24T10:34:01.120Z,37.10
2018-07-24T10:36:31.974Z,37.70
2018-07-24T10:39:02.726Z,38.10
2018-07-24T10:41:33.746Z,38.30
2018-07-24T10:44:04.110Z,38.40
2018-07-24T10:46:34.813Z,37.60
2018-07-24T10:49:05.374Z,36.80
2018-07-24T10:51:36.077Z,35.70
2018-07-24T10:54:06.683Z,35.90
2018-07-24T10:56:37.076Z,36.10
2018-07-24T10:59:07.470Z,36.90
2018-07-24T11:01:38.145Z,37.10
2018-07-24T11:04:14.037Z,37.30
2018-07-24T11:06:44.742Z,36.60
2018-07-24T11:09:15.653Z,36.90
2018-07-24T11:11:46.069Z,37.50
2018-07-24T11:16:46.354Z,38.30
2018-07-24T11:19:17.106Z,36.30
2018-07-24T11:21:47.607Z,35.70
2018-07-24T11:24:18.423Z,36.20
2018-07-24T11:26:48.994Z,36.50
2018-07-24T11:29:19.598Z,37.30
2018-07-24T11:31:50.398Z,37.50
2018-07-24T11:34:20.638Z,36.50
2018-07-24T11:36:50.961Z,36.60
2018-07-24T11:39:21.885Z,35.30
2018-07-24T11:41:52.509Z,35.90
2018-07-24T11:44:23.113Z,36.00
2018-07-24T11:46:53.461Z,36.50
2018-07-24T11:49:24.186Z,36.60
2018-07-24T11:51:54.688Z,36.80
2018-07-24T11:56:55.214Z,38.30
2018-07-24T11:59:25.856Z,38.70
2018-07-24T12:01:56.590Z,39.20
2018-07-24T12:04:27.528Z,39.00
2018-07-24T12:06:58.611Z,39.00
2018-07-24T12:09:29.248Z,39.40
2018-07-24T12:11:59.754Z,39.80
2018-07-24T12:14:30.693Z,38.90
2018-07-24T12:17:01.445Z,37.80
2018-07-24T12:19:32.097Z,37.10
2018-07-24T12:22:02.661Z,37.10
2018-07-24T12:24:33.618Z,37.20
2018-07-24T12:27:04.454Z,37.90
2018-07-24T12:29:34.929Z,37.10
2018-07-24T12:32:05.516Z,37.50
2018-07-24T12:34:36.477Z,38.50
2018-07-24T12:37:07.543Z,39.10
2018-07-24T12:39:37.902Z,38.40
2018-07-24T12:42:08.487Z,38.70
2018-07-24T12:44:38.877Z,37.10
2018-07-24T12:47:09.246Z,37.70
2018-07-24T12:49:40.418Z,38.10
2018-07-24T12:52:10.918Z,37.60
2018-07-24T12:54:41.461Z,37.90
2018-07-24T12:57:12.549Z,38.70
2018-07-24T12:59:43.081Z,38.80
2018-07-24T13:02:13.449Z,37.90
2018-07-24T13:04:43.950Z,37.60
2018-07-24T13:07:14.961Z,36.30
2018-07-24T13:09:45.354Z,35.90
2018-07-24T13:12:15.839Z,37.10
2018-07-24T13:14:46.277Z,38.10
2018-07-24T13:17:17.055Z,39.00
2018-07-24T13:19:48.138Z,39.40
2018-07-24T13:22:18.572Z,39.40
2018-07-24T13:24:48.946Z,38.80
2018-07-24T13:27:19.406Z,36.90
2018-07-24T13:29:50.302Z,36.70
2018-07-24T13:32:21.090Z,36.80
2018-07-24T13:34:51.619Z,36.30
2018-07-24T13:37:22.039Z,36.20
2018-07-24T13:39:52.862Z,35.80
2018-07-24T13:42:23.588Z,35.50
2018-07-24T13:44:54.064Z,36.00
2018-07-24T13:47:24.570Z,37.30
2018-07-24T13:49:55.509Z,38.20
2018-07-24T13:52:26.035Z,38.00
2018-07-24T13:54:56.579Z,37.40
2018-07-24T13:57:27.334Z,37.90
2018-07-24T13:59:57.859Z,38.50
2018-07-24T14:02:28.453Z,38.50
2018-07-24T14:04:58.976Z,37.80
2018-07-24T14:07:30.082Z,37.30
2018-07-24T14:10:00.982Z,37.80
2018-07-24T14:12:31.623Z,37.90
2018-07-24T14:15:02.107Z,38.30
2018-07-24T14:17:33.011Z,38.80
2018-07-24T14:20:03.478Z,39.30
2018-07-24T14:22:33.881Z,37.40
2018-07-24T14:25:04.610Z,37.90
2018-07-24T14:27:34.946Z,38.60
2018-07-24T14:30:05.771Z,39.20
2018-07-24T14:32:36.286Z,39.70
2018-07-24T14:35:07.194Z,40.10
2018-07-24T14:40:07.546Z,37.20
2018-07-24T14:42:39.311Z,36.60
2018-07-24T14:45:10.088Z,37.10
2018-07-24T14:47:40.578Z,37.30
2018-07-24T14:50:11.073Z,37.70
2018-07-24T14:52:41.946Z,38.00
2018-07-24T14:55:12.441Z,37.70
2018-07-24T14:57:42.899Z,37.30
2018-07-24T15:00:13.501Z,37.00
2018-07-24T15:02:44.782Z,37.50
2018-07-24T15:05:15.405Z,36.70
2018-07-24T15:07:46.188Z,36.40
2018-07-24T15:10:17.053Z,37.00
2018-07-24T15:12:47.779Z,36.50
2018-07-24T15:15:18.300Z,36.30
2018-07-24T15:17:49.042Z,36.90
2018-07-24T15:20:19.786Z,37.70
2018-07-24T15:22:50.295Z,37.80
2018-07-24T15:25:21.092Z,37.50
2018-07-24T15:30:16.602Z,38.00
2018-07-24T15:32:47.234Z,36.70
2018-07-24T15:35:18.158Z,36.30
2018-07-24T15:37:48.619Z,35.70
2018-07-24T15:40:19.405Z,35.70
2018-07-24T15:42:50.078Z,35.70
2018-07-24T15:45:20.617Z,35.20
2018-07-24T15:47:51.344Z,35.10
2018-07-24T15:50:22.300Z,34.90
2018-07-24T15:52:52.865Z,34.90
2018-07-24T15:57:55.082Z,35.20
2018-07-24T16:00:25.542Z,35.60
2018-07-24T16:02:55.886Z,36.20
2018-07-24T16:05:26.250Z,36.40
2018-07-24T16:07:56.930Z,36.00
2018-07-24T16:10:27.550Z,35.70
2018-07-24T16:12:58.154Z,35.90
2018-07-24T16:15:28.585Z,35.80
2018-07-24T16:17:58.958Z,35.90
2018-07-24T16:20:29.509Z,35.90
2018-07-24T16:23:00.354Z,35.70
2018-07-24T16:25:30.882Z,35.90
2018-07-24T16:28:01.313Z,36.10
2018-07-24T16:30:31.738Z,36.50
2018-07-24T16:33:02.590Z,37.10
2018-07-24T16:35:33.538Z,36.70
2018-07-24T16:38:04.035Z,37.20
2018-07-24T16:40:34.904Z,37.70
2018-07-24T16:43:05.826Z,37.90
2018-07-24T16:50:37.121Z,36.80
2018-07-24T16:53:07.805Z,36.20
2018-07-24T16:55:38.818Z,36.40
2018-07-24T17:00:40.304Z,36.50
2018-07-24T17:03:10.953Z,36.40
2018-07-24T17:05:41.642Z,35.70
2018-07-24T17:08:12.496Z,34.90
2018-07-24T17:10:43.314Z,35.20
2018-07-24T17:13:13.872Z,35.50
2018-07-24T17:18:14.994Z,36.10
2018-07-24T17:20:45.826Z,36.00
2018-07-24T17:23:16.406Z,35.80
2018-07-24T17:25:47.070Z,35.70
2018-07-24T17:28:17.707Z,35.70
2018-07-24T17:30:48.261Z,35.70
2018-07-24T17:33:18.857Z,35.60
2018-07-24T17:35:49.686Z,35.60
2018-07-24T17:38:20.034Z,35.60
2018-07-24T17:40:50.752Z,35.40
2018-07-24T17:43:21.459Z,35.20
2018-07-24T17:45:52.208Z,35.10
2018-07-24T17:48:22.914Z,34.40
2018-07-24T17:50:54.989Z,34.10
2018-07-24T17:53:25.858Z,34.00
2018-07-24T17:55:56.462Z,33.80
2018-07-24T17:58:27.402Z,33.90
2018-07-24T18:00:58.424Z,33.90
2018-07-24T18:03:28.775Z,33.90
2018-07-24T18:05:59.846Z,33.80
2018-07-24T18:08:31.428Z,33.60
2018-07-24T18:11:02.650Z,33.40
2018-07-24T18:13:33.333Z,33.30
2018-07-24T18:16:03.954Z,33.20
2018-07-24T18:18:34.410Z,33.20
2018-07-24T18:21:05.551Z,33.10
2018-07-24T18:23:36.006Z,33.10
2018-07-24T18:26:06.393Z,33.10
2018-07-24T18:28:41.920Z,33.00
2018-07-24T18:31:14.027Z,33.00
2018-07-24T18:33:44.344Z,32.90
2018-07-24T18:36:14.730Z,32.80
2018-07-24T18:38:46.811Z,32.70
2018-07-24T18:41:17.506Z,32.60
2018-07-24T18:43:48.182Z,32.60
2018-07-24T18:46:19.846Z,32.40
2018-07-24T18:48:52.171Z,32.30
2018-07-24T18:51:22.745Z,32.10
2018-07-24T18:53:53.666Z,32.00
2018-07-24T18:56:24.820Z,31.90
2018-07-24T18:58:55.850Z,31.80
2018-07-24T19:01:26.581Z,31.60
2018-07-24T19:06:28.789Z,31.50
2018-07-24T19:08:59.912Z,31.30
2018-07-24T19:11:30.718Z,31.20
2018-07-24T19:14:01.757Z,31.20
2018-07-24T19:16:32.791Z,31.10
2018-07-24T19:19:03.214Z,31.00
2018-07-24T19:21:34.182Z,31.00
2018-07-24T19:24:04.902Z,30.80
2018-07-24T19:26:36.277Z,30.70
2018-07-24T19:29:07.949Z,30.70
2018-07-24T19:31:39.221Z,30.60
2018-07-24T19:34:09.875Z,30.60
2018-07-24T19:36:41.250Z,30.60
2018-07-24T19:39:12.509Z,30.60
2018-07-24T19:41:43.450Z,30.50
2018-07-24T19:44:14.437Z,30.40
2018-07-24T19:46:45.134Z,30.30
2018-07-24T19:49:16.017Z,30.30
2018-07-24T19:51:46.990Z,30.20
2018-07-24T19:54:18.407Z,30.10
2018-07-24T19:56:48.836Z,30.10
2018-07-24T19:59:21.325Z,29.90
2018-07-24T20:04:23.058Z,29.70
2018-07-24T20:06:54.030Z,29.70
2018-07-24T20:09:24.733Z,29.60
2018-07-24T20:11:55.582Z,29.40
2018-07-24T20:14:29.178Z,29.20
2018-07-24T20:17:01.178Z,29.10
2018-07-24T20:19:31.983Z,29.10
2018-07-24T20:22:02.738Z,29.00
2018-07-24T20:24:33.595Z,28.90
2018-07-24T20:27:04.310Z,28.80
2018-07-24T20:29:34.901Z,28.60
2018-07-24T20:32:05.379Z,28.50
2018-07-24T20:34:35.802Z,28.40
2018-07-24T20:37:06.526Z,28.40
2018-07-24T20:39:36.861Z,28.40
2018-07-24T20:42:07.387Z,28.30
2018-07-24T20:44:38.719Z,28.20
2018-07-24T20:47:09.145Z,28.00
2018-07-24T20:49:39.657Z,27.90
2018-07-24T20:52:10.115Z,27.70
2018-07-24T20:54:41.159Z,27.70
2018-07-24T20:57:11.576Z,27.60
2018-07-24T21:02:12.213Z,27.50
2018-07-24T21:04:43.353Z,27.40
2018-07-24T21:07:14.446Z,27.30
2018-07-24T21:09:44.794Z,27.30
2018-07-24T21:12:15.846Z,27.20
2018-07-24T21:14:46.127Z,27.20
2018-07-24T21:17:16.679Z,27.20
2018-07-24T21:19:47.431Z,27.20
2018-07-24T21:22:17.831Z,27.20
2018-07-24T21:24:48.682Z,27.10
2018-07-24T21:27:19.250Z,27.00
2018-07-24T21:29:49.820Z,27.00
2018-07-24T21:32:20.478Z,26.90
2018-07-24T21:34:51.164Z,26.80
2018-07-24T21:37:21.537Z,26.70
2018-07-24T21:39:52.113Z,26.70
2018-07-24T21:42:22.934Z,26.70
2018-07-24T21:44:53.418Z,26.70
2018-07-24T21:47:24.105Z,26.70
2018-07-24T21:49:54.664Z,26.70
2018-07-24T21:52:25.644Z,26.70
2018-07-24T21:54:56.290Z,26.50
2018-07-24T21:57:27.243Z,26.30
2018-07-24T21:59:58.605Z,26.30
2018-07-24T22:02:29.033Z,26.30
2018-07-24T22:04:59.691Z,26.30
2018-07-24T22:07:30.615Z,26.30
2018-07-24T22:10:01.319Z,26.20
2018-07-24T22:12:32.326Z,26.20
2018-07-24T22:15:02.892Z,26.30
2018-07-24T22:17:33.502Z,26.20
2018-07-24T22:20:04.384Z,26.20
2018-07-24T22:22:35.288Z,26.20
2018-07-24T22:25:05.970Z,26.10
2018-07-24T22:27:36.565Z,26.00
2018-07-24T22:30:07.632Z,26.00
2018-07-24T22:32:38.545Z,25.90
2018-07-24T22:35:10.593Z,25.80
2018-07-24T22:37:41.050Z,25.80
2018-07-24T22:40:12.590Z,25.70
2018-07-24T22:42:43.246Z,25.70
2018-07-24T22:45:13.821Z,25.70
2018-07-24T22:47:44.930Z,25.70
2018-07-24T22:50:15.736Z,25.60
2018-07-24T22:52:46.489Z,25.60
2018-07-24T22:55:16.940Z,25.40
2018-07-24T22:57:47.521Z,25.40
2018-07-24T23:00:18.110Z,25.40
2018-07-24T23:02:48.473Z,25.30
2018-07-24T23:05:19.165Z,25.20
2018-07-24T23:07:50.103Z,25.20
2018-07-24T23:10:20.584Z,25.20
2018-07-24T23:12:51.132Z,25.20
2018-07-24T23:15:21.755Z,25.30
2018-07-24T23:17:52.725Z,25.30
2018-07-24T23:20:23.410Z,25.30
2018-07-24T23:22:54.223Z,25.30
2018-07-24T23:25:25.192Z,25.20
2018-07-24T23:27:56.110Z,25.30
2018-07-24T23:30:26.410Z,25.30
2018-07-24T23:32:56.866Z,25.30
2018-07-24T23:35:27.217Z,25.30
2018-07-24T23:37:57.899Z,25.20
2018-07-24T23:40:28.266Z,25.10
2018-07-24T23:42:59.233Z,25.00
2018-07-24T23:45:29.465Z,24.90
2018-07-24T23:47:59.894Z,24.80
2018-07-24T23:50:30.549Z,24.50
2018-07-24T23:53:01.600Z,24.50
2018-07-24T23:55:34.797Z,24.60
2018-07-24T23:58:06.375Z,24.60
